YBHM Airport Information

Runway Information
Runway 14 Length 5591 ft width 148 ft
Elevation 15 ft Threshold 196 ft Heading 143
Runway 32 Length 5591 ft Width 148 ft
Elevation 15 ft Threshold 196 ft Heading 323
Airport Frequencies
Type ATIS Name ATIS Frequency 114.4 MHZ
Type CTAF Name CTAF Frequency 126.7 MHZ
Type FSS Name BRISBANE C Frequency 135.5 MHZ
Type TWR Name TWR Frequency 118.7 MHZ
Airport Navaids
Type VOR-DME Name Hamilton Island Frequency 114400 KHZ
Type NDB Name Hamilton Island Frequency 383 KHZ
Airport Weather Information & NOTAM
ADDS - METARS form results

(0650 UTC 07 March 2021)
Data provider http://aviationweather.gov/metar/data/
 
METAR text: YBHM 070630Z AUTO 04011KT 9999 // SCT028 29/21 Q1010 RF00.0/000.0
Conditions at: YBHM (HAMILTON ISLAND , AU) observed 0630 UTC 07 March 2021
Temperature: 29.0°C (84°F)
Dewpoint: 21.0°C (70°F) [RH = 62%]
Pressure (altimeter): 29.82 inches Hg (1010.0 mb)
Winds: from the NE (40 degrees) at 13 MPH (11 knots; 5.7 m/s)
Visibility: 6 or more miles (10+ km)
Ceiling: at least 12,000 feet AGL
Clouds: scattered clouds at 2800 feet AGL
Weather: no significant weather observed at this time

METAR text: YBHM 070600Z AUTO 05014KT 9999 // SCT029 SCT041 29/22 Q1010
Conditions at: YBHM (HAMILTON ISLAND , AU) observed 0600 UTC 07 March 2021
Temperature: 29.0°C (84°F)
Dewpoint: 22.0°C (72°F) [RH = 66%]
Pressure (altimeter): 29.82 inches Hg (1010.0 mb)
Winds: from the NE (50 degrees) at 16 MPH (14 knots; 7.2 m/s)
Visibility: 6 or more miles (10+ km)
Ceiling: at least 12,000 feet AGL
Clouds: scattered clouds at 2900 feet AGL
scattered clouds at 4100 feet AGL
Weather: no significant weather observed at this time

Forecast for: YBHM (HAMILTON ISLAND , AU)
Text: TAF YBHM 070517Z 0706/0718 05014KT 9999 SCT030
Forecast period: 0600 to 1400 UTC 07 March 2021
Forecast type: FROM: standard forecast or significant change
Winds: from the NE (50 degrees) at 16 MPH (14 knots; 7.2 m/s)
Visibility: 6 or more miles (10+ km)
Ceiling: at least 12,000 feet AGL
Clouds: scattered clouds at 3000 feet AGL
Weather: no significant weather forecast for this period
Text: FM071400 05012KT 9999 SCT025
Forecast period: 1400 to 1800 UTC 07 March 2021
Forecast type: FROM: standard forecast or significant change
Winds: from the NE (50 degrees) at 14 MPH (12 knots; 6.2 m/s)
Visibility: 6 or more miles (10+ km)
Ceiling: at least 12,000 feet AGL
Clouds: scattered clouds at 2500 feet AGL
Weather: no significant weather forecast for this period